sensor_id;sensor_type;location;lat;lon;timestamp;temperature;humidity
44063;DHT22;29727;47.606;19.130;2023-03-25T00:00:19;17.60;60.00
44063;DHT22;29727;47.606;19.130;2023-03-25T00:02:48;17.60;59.90
44063;DHT22;29727;47.606;19.130;2023-03-25T00:05:15;17.50;60.00
44063;DHT22;29727;47.606;19.130;2023-03-25T00:07:43;17.50;60.20
44063;DHT22;29727;47.606;19.130;2023-03-25T00:10:09;17.50;60.50
44063;DHT22;29727;47.606;19.130;2023-03-25T00:12:36;17.50;60.50
44063;DHT22;29727;47.606;19.130;2023-03-25T00:15:01;17.40;60.40
44063;DHT22;29727;47.606;19.130;2023-03-25T00:17:27;17.40;61.00
44063;DHT22;29727;47.606;19.130;2023-03-25T00:19:56;17.40;60.50
44063;DHT22;29727;47.606;19.130;2023-03-25T00:22:25;17.40;60.70
44063;DHT22;29727;47.606;19.130;2023-03-25T00:24:51;17.40;61.20
44063;DHT22;29727;47.606;19.130;2023-03-25T00:27:17;17.40;61.10
44063;DHT22;29727;47.606;19.130;2023-03-25T00:29:44;17.30;60.80
44063;DHT22;29727;47.606;19.130;2023-03-25T00:32:11;17.30;61.10
44063;DHT22;29727;47.606;19.130;2023-03-25T00:34:36;17.30;61.50
44063;DHT22;29727;47.606;19.130;2023-03-25T00:37:09;17.30;61.40
44063;DHT22;29727;47.606;19.130;2023-03-25T00:39:35;17.30;61.40
44063;DHT22;29727;47.606;19.130;2023-03-25T00:42:02;17.30;61.40
44063;DHT22;29727;47.606;19.130;2023-03-25T00:44:28;17.30;61.40
44063;DHT22;29727;47.606;19.130;2023-03-25T00:46:54;17.20;61.70
44063;DHT22;29727;47.606;19.130;2023-03-25T00:49:20;17.20;61.50
44063;DHT22;29727;47.606;19.130;2023-03-25T00:51:50;17.20;61.10
44063;DHT22;29727;47.606;19.130;2023-03-25T00:54:16;17.20;60.60
44063;DHT22;29727;47.606;19.130;2023-03-25T00:56:43;17.20;59.80
44063;DHT22;29727;47.606;19.130;2023-03-25T00:59:09;17.20;60.20
44063;DHT22;29727;47.606;19.130;2023-03-25T01:01:36;17.20;59.90
44063;DHT22;29727;47.606;19.130;2023-03-25T01:04:05;17.20;60.10
44063;DHT22;29727;47.606;19.130;2023-03-25T01:06:38;17.20;59.70
44063;DHT22;29727;47.606;19.130;2023-03-25T01:09:07;17.20;59.30
44063;DHT22;29727;47.606;19.130;2023-03-25T01:11:33;17.20;59.50
44063;DHT22;29727;47.606;19.130;2023-03-25T01:14:00;17.20;59.80
44063;DHT22;29727;47.606;19.130;2023-03-25T01:16:27;17.20;60.40
44063;DHT22;29727;47.606;19.130;2023-03-25T01:18:54;17.20;61.90
44063;DHT22;29727;47.606;19.130;2023-03-25T01:21:20;17.10;63.00
44063;DHT22;29727;47.606;19.130;2023-03-25T01:23:46;17.00;63.40
44063;DHT22;29727;47.606;19.130;2023-03-25T01:26:12;16.90;64.30
44063;DHT22;29727;47.606;19.130;2023-03-25T01:28:42;16.90;65.10
44063;DHT22;29727;47.606;19.130;2023-03-25T01:31:09;16.80;65.50
44063;DHT22;29727;47.606;19.130;2023-03-25T01:33:35;16.70;66.10
44063;DHT22;29727;47.606;19.130;2023-03-25T01:36:02;16.70;66.50
44063;DHT22;29727;47.606;19.130;2023-03-25T01:38:28;16.60;67.10
44063;DHT22;29727;47.606;19.130;2023-03-25T01:40:55;16.50;67.60
44063;DHT22;29727;47.606;19.130;2023-03-25T01:43:21;16.50;68.10
44063;DHT22;29727;47.606;19.130;2023-03-25T01:45:48;16.40;68.60
44063;DHT22;29727;47.606;19.130;2023-03-25T01:48:27;16.30;69.10
44063;DHT22;29727;47.606;19.130;2023-03-25T01:51:00;16.20;69.80
44063;DHT22;29727;47.606;19.130;2023-03-25T01:53:29;16.20;70.50
44063;DHT22;29727;47.606;19.130;2023-03-25T01:55:56;16.10;70.70
44063;DHT22;29727;47.606;19.130;2023-03-25T01:58:24;16.10;71.10
44063;DHT22;29727;47.606;19.130;2023-03-25T02:00:51;16.00;71.30
44063;DHT22;29727;47.606;19.130;2023-03-25T02:03:20;16.00;71.20
44063;DHT22;29727;47.606;19.130;2023-03-25T02:08:19;15.90;71.40
44063;DHT22;29727;47.606;19.130;2023-03-25T02:10:46;15.80;72.30
44063;DHT22;29727;47.606;19.130;2023-03-25T02:13:13;15.80;72.80
44063;DHT22;29727;47.606;19.130;2023-03-25T02:15:57;15.80;73.30
44063;DHT22;29727;47.606;19.130;2023-03-25T02:43:48;15.00;77.40
44063;DHT22;29727;47.606;19.130;2023-03-25T02:46:16;15.00;77.40
44063;DHT22;29727;47.606;19.130;2023-03-25T02:48:59;15.00;77.90
44063;DHT22;29727;47.606;19.130;2023-03-25T02:51:33;14.90;78.20
44063;DHT22;29727;47.606;19.130;2023-03-25T02:54:05;14.90;78.30
44063;DHT22;29727;47.606;19.130;2023-03-25T02:56:33;14.90;79.00
44063;DHT22;29727;47.606;19.130;2023-03-25T02:59:02;14.80;79.40
44063;DHT22;29727;47.606;19.130;2023-03-25T03:01:28;14.70;79.90
44063;DHT22;29727;47.606;19.130;2023-03-25T03:03:55;14.60;80.30
44063;DHT22;29727;47.606;19.130;2023-03-25T03:06:22;14.60;80.80
44063;DHT22;29727;47.606;19.130;2023-03-25T03:08:53;14.50;81.10
44063;DHT22;29727;47.606;19.130;2023-03-25T03:11:34;14.50;81.20
44063;DHT22;29727;47.606;19.130;2023-03-25T03:17:18;14.40;81.10
44063;DHT22;29727;47.606;19.130;2023-03-25T03:19:57;14.40;81.30
44063;DHT22;29727;47.606;19.130;2023-03-25T03:25:27;14.30;81.20
44063;DHT22;29727;47.606;19.130;2023-03-25T03:30:34;14.40;81.40
44063;DHT22;29727;47.606;19.130;2023-03-25T03:33:20;14.30;81.00
44063;DHT22;29727;47.606;19.130;2023-03-25T03:36:10;14.30;81.20
44063;DHT22;29727;47.606;19.130;2023-03-25T03:38:44;14.30;81.80
44063;DHT22;29727;47.606;19.130;2023-03-25T03:41:17;14.30;81.70
44063;DHT22;29727;47.606;19.130;2023-03-25T03:43:58;14.20;81.80
44063;DHT22;29727;47.606;19.130;2023-03-25T03:47:03;14.20;82.50
44063;DHT22;29727;47.606;19.130;2023-03-25T03:49:28;14.10;82.90
44063;DHT22;29727;47.606;19.130;2023-03-25T03:52:04;14.00;82.80
44063;DHT22;29727;47.606;19.130;2023-03-25T03:54:37;14.00;82.50
44063;DHT22;29727;47.606;19.130;2023-03-25T03:57:15;14.00;82.40
44063;DHT22;29727;47.606;19.130;2023-03-25T04:02:49;13.90;83.10
44063;DHT22;29727;47.606;19.130;2023-03-25T04:05:19;13.80;82.60
44063;DHT22;29727;47.606;19.130;2023-03-25T04:07:52;13.70;82.90
44063;DHT22;29727;47.606;19.130;2023-03-25T04:10:44;13.70;82.70
44063;DHT22;29727;47.606;19.130;2023-03-25T04:13:19;13.70;83.00
44063;DHT22;29727;47.606;19.130;2023-03-25T04:15:45;13.70;83.40
44063;DHT22;29727;47.606;19.130;2023-03-25T04:18:11;13.70;83.70
44063;DHT22;29727;47.606;19.130;2023-03-25T04:20:38;13.60;83.70
44063;DHT22;29727;47.606;19.130;2023-03-25T04:23:10;13.70;84.00
44063;DHT22;29727;47.606;19.130;2023-03-25T04:25:41;13.70;83.30
44063;DHT22;29727;47.606;19.130;2023-03-25T04:28:09;13.70;83.10
44063;DHT22;29727;47.606;19.130;2023-03-25T04:30:38;13.70;82.90
44063;DHT22;29727;47.606;19.130;2023-03-25T04:33:05;13.70;83.50
44063;DHT22;29727;47.606;19.130;2023-03-25T04:35:30;13.80;83.50
44063;DHT22;29727;47.606;19.130;2023-03-25T04:37:57;13.70;83.90
44063;DHT22;29727;47.606;19.130;2023-03-25T04:40:23;13.80;83.60
44063;DHT22;29727;47.606;19.130;2023-03-25T04:42:50;13.90;84.20
44063;DHT22;29727;47.606;19.130;2023-03-25T04:45:18;13.90;83.40
44063;DHT22;29727;47.606;19.130;2023-03-25T04:47:47;14.00;83.40
44063;DHT22;29727;47.606;19.130;2023-03-25T04:50:24;14.00;83.40
44063;DHT22;29727;47.606;19.130;2023-03-25T04:52:51;14.10;83.20
44063;DHT22;29727;47.606;19.130;2023-03-25T04:55:18;14.10;82.90
44063;DHT22;29727;47.606;19.130;2023-03-25T04:57:47;14.10;82.80
44063;DHT22;29727;47.606;19.130;2023-03-25T05:00:15;14.20;83.20
44063;DHT22;29727;47.606;19.130;2023-03-25T05:02:52;14.20;82.40
44063;DHT22;29727;47.606;19.130;2023-03-25T05:05:21;14.20;82.30
44063;DHT22;29727;47.606;19.130;2023-03-25T05:07:49;14.20;81.50
44063;DHT22;29727;47.606;19.130;2023-03-25T05:10:16;14.20;82.30
44063;DHT22;29727;47.606;19.130;2023-03-25T05:12:42;14.10;81.60
44063;DHT22;29727;47.606;19.130;2023-03-25T05:15:09;14.00;82.10
44063;DHT22;29727;47.606;19.130;2023-03-25T05:17:35;14.00;82.00
44063;DHT22;29727;47.606;19.130;2023-03-25T05:20:02;14.00;81.40
44063;DHT22;29727;47.606;19.130;2023-03-25T05:22:30;14.00;82.10
44063;DHT22;29727;47.606;19.130;2023-03-25T05:24:56;13.90;81.90
44063;DHT22;29727;47.606;19.130;2023-03-25T05:27:21;13.90;81.80
44063;DHT22;29727;47.606;19.130;2023-03-25T05:29:47;13.90;81.90
44063;DHT22;29727;47.606;19.130;2023-03-25T05:32:13;13.90;81.90
44063;DHT22;29727;47.606;19.130;2023-03-25T05:34:43;13.90;80.20
44063;DHT22;29727;47.606;19.130;2023-03-25T05:37:12;13.90;80.00
44063;DHT22;29727;47.606;19.130;2023-03-25T05:39:38;13.90;80.60
44063;DHT22;29727;47.606;19.130;2023-03-25T05:42:03;13.90;80.90
44063;DHT22;29727;47.606;19.130;2023-03-25T05:44:29;13.90;81.80
44063;DHT22;29727;47.606;19.130;2023-03-25T05:46:55;13.90;81.70
44063;DHT22;29727;47.606;19.130;2023-03-25T05:49:21;14.00;80.80
44063;DHT22;29727;47.606;19.130;2023-03-25T05:51:47;14.00;80.40
44063;DHT22;29727;47.606;19.130;2023-03-25T05:54:14;14.00;80.40
44063;DHT22;29727;47.606;19.130;2023-03-25T05:56:40;14.00;80.90
44063;DHT22;29727;47.606;19.130;2023-03-25T05:59:07;14.10;80.60
44063;DHT22;29727;47.606;19.130;2023-03-25T06:01:35;14.20;79.80
44063;DHT22;29727;47.606;19.130;2023-03-25T06:04:07;14.20;79.60
44063;DHT22;29727;47.606;19.130;2023-03-25T06:06:34;14.20;79.10
44063;DHT22;29727;47.606;19.130;2023-03-25T06:09:01;14.20;78.80
44063;DHT22;29727;47.606;19.130;2023-03-25T06:11:27;14.20;78.40
44063;DHT22;29727;47.606;19.130;2023-03-25T06:13:52;14.20;79.00
44063;DHT22;29727;47.606;19.130;2023-03-25T06:16:23;14.20;79.50
44063;DHT22;29727;47.606;19.130;2023-03-25T06:18:52;14.20;79.50
44063;DHT22;29727;47.606;19.130;2023-03-25T06:21:25;14.30;78.50
44063;DHT22;29727;47.606;19.130;2023-03-25T06:23:54;14.30;77.60
44063;DHT22;29727;47.606;19.130;2023-03-25T06:26:22;14.30;78.30
44063;DHT22;29727;47.606;19.130;2023-03-25T06:28:49;14.40;78.60
44063;DHT22;29727;47.606;19.130;2023-03-25T06:31:17;14.40;77.90
44063;DHT22;29727;47.606;19.130;2023-03-25T06:33:44;14.40;77.90
44063;DHT22;29727;47.606;19.130;2023-03-25T06:36:10;14.40;76.50
44063;DHT22;29727;47.606;19.130;2023-03-25T06:38:38;14.40;77.00
44063;DHT22;29727;47.606;19.130;2023-03-25T06:41:04;14.30;76.30
44063;DHT22;29727;47.606;19.130;2023-03-25T06:43:32;14.20;76.00
44063;DHT22;29727;47.606;19.130;2023-03-25T06:45:57;14.20;76.70
44063;DHT22;29727;47.606;19.130;2023-03-25T06:48:23;14.10;76.80
44063;DHT22;29727;47.606;19.130;2023-03-25T06:50:49;14.20;76.90
44063;DHT22;29727;47.606;19.130;2023-03-25T06:53:15;14.20;77.20
44063;DHT22;29727;47.606;19.130;2023-03-25T06:55:41;14.20;76.50
44063;DHT22;29727;47.606;19.130;2023-03-25T06:58:09;14.10;76.40
44063;DHT22;29727;47.606;19.130;2023-03-25T07:00:35;14.20;76.80
44063;DHT22;29727;47.606;19.130;2023-03-25T07:03:01;14.20;76.50
44063;DHT22;29727;47.606;19.130;2023-03-25T07:05:27;14.30;76.90
44063;DHT22;29727;47.606;19.130;2023-03-25T07:07:52;14.30;76.90
44063;DHT22;29727;47.606;19.130;2023-03-25T07:12:44;14.30;74.00
44063;DHT22;29727;47.606;19.130;2023-03-25T07:15:10;14.30;75.20
44063;DHT22;29727;47.606;19.130;2023-03-25T07:17:36;14.30;75.80
44063;DHT22;29727;47.606;19.130;2023-03-25T07:20:06;14.40;75.60
44063;DHT22;29727;47.606;19.130;2023-03-25T07:22:32;14.40;75.10
44063;DHT22;29727;47.606;19.130;2023-03-25T07:24:57;14.50;74.30
44063;DHT22;29727;47.606;19.130;2023-03-25T07:27:24;14.50;73.70
44063;DHT22;29727;47.606;19.130;2023-03-25T07:29:50;14.50;74.00
44063;DHT22;29727;47.606;19.130;2023-03-25T07:32:16;14.50;73.30
44063;DHT22;29727;47.606;19.130;2023-03-25T07:34:41;14.50;73.60
44063;DHT22;29727;47.606;19.130;2023-03-25T07:37:07;14.50;73.70
44063;DHT22;29727;47.606;19.130;2023-03-25T07:39:33;14.60;73.50
44063;DHT22;29727;47.606;19.130;2023-03-25T07:41:59;14.60;72.30
44063;DHT22;29727;47.606;19.130;2023-03-25T07:44:24;14.60;72.00
44063;DHT22;29727;47.606;19.130;2023-03-25T07:46:50;14.60;73.20
44063;DHT22;29727;47.606;19.130;2023-03-25T07:49:16;14.60;73.70
44063;DHT22;29727;47.606;19.130;2023-03-25T07:51:43;14.70;72.50
44063;DHT22;29727;47.606;19.130;2023-03-25T07:54:09;14.80;72.00
44063;DHT22;29727;47.606;19.130;2023-03-25T07:56:35;15.00;71.50
44063;DHT22;29727;47.606;19.130;2023-03-25T07:59:01;15.00;70.60
44063;DHT22;29727;47.606;19.130;2023-03-25T08:01:27;15.00;69.00
44063;DHT22;29727;47.606;19.130;2023-03-25T08:03:52;15.10;69.10
44063;DHT22;29727;47.606;19.130;2023-03-25T08:06:18;15.10;69.00
44063;DHT22;29727;47.606;19.130;2023-03-25T08:08:44;15.10;70.10
44063;DHT22;29727;47.606;19.130;2023-03-25T08:11:10;15.10;70.40
44063;DHT22;29727;47.606;19.130;2023-03-25T08:13:35;15.20;70.60
44063;DHT22;29727;47.606;19.130;2023-03-25T08:16:01;15.20;67.80
44063;DHT22;29727;47.606;19.130;2023-03-25T08:18:27;15.30;67.70
44063;DHT22;29727;47.606;19.130;2023-03-25T08:20:53;15.30;68.30
44063;DHT22;29727;47.606;19.130;2023-03-25T08:23:19;15.40;67.50
44063;DHT22;29727;47.606;19.130;2023-03-25T08:25:48;15.40;66.90
44063;DHT22;29727;47.606;19.130;2023-03-25T08:28:15;15.50;67.20
44063;DHT22;29727;47.606;19.130;2023-03-25T08:30:51;15.60;66.80
44063;DHT22;29727;47.606;19.130;2023-03-25T08:33:21;15.80;66.80
44063;DHT22;29727;47.606;19.130;2023-03-25T08:35:47;15.90;64.30
44063;DHT22;29727;47.606;19.130;2023-03-25T08:38:15;16.00;65.90
44063;DHT22;29727;47.606;19.130;2023-03-25T08:40:42;16.20;63.80
44063;DHT22;29727;47.606;19.130;2023-03-25T08:43:09;16.20;63.20
44063;DHT22;29727;47.606;19.130;2023-03-25T08:45:35;16.10;62.40
44063;DHT22;29727;47.606;19.130;2023-03-25T08:48:01;16.10;63.10
44063;DHT22;29727;47.606;19.130;2023-03-25T08:50:28;16.00;62.80
44063;DHT22;29727;47.606;19.130;2023-03-25T08:52:55;16.00;64.40
44063;DHT22;29727;47.606;19.130;2023-03-25T08:55:23;16.00;63.90
44063;DHT22;29727;47.606;19.130;2023-03-25T08:57:48;16.10;63.40
44063;DHT22;29727;47.606;19.130;2023-03-25T09:00:14;16.20;62.30
44063;DHT22;29727;47.606;19.130;2023-03-25T09:02:41;16.30;62.20
44063;DHT22;29727;47.606;19.130;2023-03-25T09:05:11;16.30;62.00
44063;DHT22;29727;47.606;19.130;2023-03-25T09:07:37;16.40;62.60
44063;DHT22;29727;47.606;19.130;2023-03-25T09:10:05;16.50;62.80
44063;DHT22;29727;47.606;19.130;2023-03-25T09:12:31;16.60;62.00
44063;DHT22;29727;47.606;19.130;2023-03-25T09:14:57;16.80;60.80
44063;DHT22;29727;47.606;19.130;2023-03-25T09:17:23;16.90;61.00
44063;DHT22;29727;47.606;19.130;2023-03-25T09:19:49;17.00;60.10
44063;DHT22;29727;47.606;19.130;2023-03-25T09:22:15;17.10;58.90
44063;DHT22;29727;47.606;19.130;2023-03-25T09:24:41;17.20;59.30
44063;DHT22;29727;47.606;19.130;2023-03-25T09:27:07;17.30;58.60
44063;DHT22;29727;47.606;19.130;2023-03-25T09:29:33;17.30;59.40
44063;DHT22;29727;47.606;19.130;2023-03-25T09:31:59;17.30;58.80
44063;DHT22;29727;47.606;19.130;2023-03-25T09:34:26;17.30;59.00
44063;DHT22;29727;47.606;19.130;2023-03-25T09:36:53;17.30;58.60
44063;DHT22;29727;47.606;19.130;2023-03-25T09:39:19;17.20;57.60
44063;DHT22;29727;47.606;19.130;2023-03-25T09:50:33;17.00;57.00
44063;DHT22;29727;47.606;19.130;2023-03-25T09:53:49;16.90;56.70
44063;DHT22;29727;47.606;19.130;2023-03-25T09:55:48;16.90;57.60
44063;DHT22;29727;47.606;19.130;2023-03-25T10:00:50;17.00;57.40
44063;DHT22;29727;47.606;19.130;2023-03-25T10:03:25;17.20;58.60
44063;DHT22;29727;47.606;19.130;2023-03-25T10:12:21;17.50;56.70
44063;DHT22;29727;47.606;19.130;2023-03-25T10:26:36;18.10;54.00
44063;DHT22;29727;47.606;19.130;2023-03-25T10:29:53;18.10;53.80
44063;DHT22;29727;47.606;19.130;2023-03-25T10:32:35;18.00;54.30
44063;DHT22;29727;47.606;19.130;2023-03-25T10:35:03;17.90;55.40
44063;DHT22;29727;47.606;19.130;2023-03-25T10:37:34;17.90;55.80
44063;DHT22;29727;47.606;19.130;2023-03-25T10:45:42;18.10;55.70
44063;DHT22;29727;47.606;19.130;2023-03-25T10:48:28;18.10;55.60
44063;DHT22;29727;47.606;19.130;2023-03-25T10:51:08;18.00;56.70
44063;DHT22;29727;47.606;19.130;2023-03-25T10:53:34;18.00;57.00
44063;DHT22;29727;47.606;19.130;2023-03-25T10:56:09;18.10;55.30
44063;DHT22;29727;47.606;19.130;2023-03-25T10:58:39;18.10;53.00
44063;DHT22;29727;47.606;19.130;2023-03-25T11:01:15;18.10;53.30
44063;DHT22;29727;47.606;19.130;2023-03-25T11:03:43;18.00;53.60
44063;DHT22;29727;47.606;19.130;2023-03-25T11:06:37;18.00;51.60
44063;DHT22;29727;47.606;19.130;2023-03-25T11:11:34;18.00;53.20
44063;DHT22;29727;47.606;19.130;2023-03-25T11:14:01;18.10;53.90
44063;DHT22;29727;47.606;19.130;2023-03-25T11:16:39;18.10;53.60
44063;DHT22;29727;47.606;19.130;2023-03-25T11:19:11;18.20;53.80
44063;DHT22;29727;47.606;19.130;2023-03-25T11:21:37;18.10;52.90
44063;DHT22;29727;47.606;19.130;2023-03-25T11:24:05;18.10;52.70
44063;DHT22;29727;47.606;19.130;2023-03-25T11:26:38;18.00;53.80
44063;DHT22;29727;47.606;19.130;2023-03-25T11:29:08;17.90;54.40
44063;DHT22;29727;47.606;19.130;2023-03-25T11:31:36;17.90;54.10
44063;DHT22;29727;47.606;19.130;2023-03-25T11:34:20;17.90;53.90
44063;DHT22;29727;47.606;19.130;2023-03-25T11:37:05;17.90;55.00
44063;DHT22;29727;47.606;19.130;2023-03-25T11:39:34;17.90;53.80
44063;DHT22;29727;47.606;19.130;2023-03-25T11:42:12;18.00;52.60
44063;DHT22;29727;47.606;19.130;2023-03-25T11:44:38;18.00;52.00
44063;DHT22;29727;47.606;19.130;2023-03-25T11:47:08;18.00;51.60
44063;DHT22;29727;47.606;19.130;2023-03-25T11:49:36;18.00;50.90
44063;DHT22;29727;47.606;19.130;2023-03-25T11:52:12;18.00;51.30
44063;DHT22;29727;47.606;19.130;2023-03-25T11:54:41;17.90;51.30
44063;DHT22;29727;47.606;19.130;2023-03-25T11:57:13;17.80;51.80
44063;DHT22;29727;47.606;19.130;2023-03-25T11:59:48;17.70;51.90
44063;DHT22;29727;47.606;19.130;2023-03-25T12:02:22;17.60;51.70
44063;DHT22;29727;47.606;19.130;2023-03-25T12:05:00;17.50;53.30
44063;DHT22;29727;47.606;19.130;2023-03-25T12:07:27;17.30;52.10
44063;DHT22;29727;47.606;19.130;2023-03-25T12:09:58;17.20;52.20
44063;DHT22;29727;47.606;19.130;2023-03-25T12:21:26;17.10;51.20
44063;DHT22;29727;47.606;19.130;2023-03-25T12:26:35;16.90;52.00
44063;DHT22;29727;47.606;19.130;2023-03-25T12:31:59;16.90;52.80
44063;DHT22;29727;47.606;19.130;2023-03-25T12:40:28;17.00;51.80
44063;DHT22;29727;47.606;19.130;2023-03-25T12:43:09;17.00;52.00
44063;DHT22;29727;47.606;19.130;2023-03-25T12:45:38;17.10;51.10
44063;DHT22;29727;47.606;19.130;2023-03-25T12:58:59;17.30;50.60
44063;DHT22;29727;47.606;19.130;2023-03-25T13:07:04;17.50;50.00
44063;DHT22;29727;47.606;19.130;2023-03-25T13:12:32;17.50;50.00
44063;DHT22;29727;47.606;19.130;2023-03-25T13:20:03;17.40;49.20
44063;DHT22;29727;47.606;19.130;2023-03-25T13:22:39;17.40;48.40
44063;DHT22;29727;47.606;19.130;2023-03-25T13:25:17;17.30;48.90
44063;DHT22;29727;47.606;19.130;2023-03-25T13:27:44;17.30;49.10
44063;DHT22;29727;47.606;19.130;2023-03-25T13:30:36;17.30;48.70
44063;DHT22;29727;47.606;19.130;2023-03-25T13:33:18;17.30;49.80
44063;DHT22;29727;47.606;19.130;2023-03-25T13:35:52;17.30;49.60
44063;DHT22;29727;47.606;19.130;2023-03-25T13:43:28;17.30;49.20
44063;DHT22;29727;47.606;19.130;2023-03-25T13:46:14;17.30;48.80
44063;DHT22;29727;47.606;19.130;2023-03-25T13:51:46;17.30;48.20
44063;DHT22;29727;47.606;19.130;2023-03-25T13:54:17;17.30;48.80
44063;DHT22;29727;47.606;19.130;2023-03-25T14:13:41;17.60;47.40
44063;DHT22;29727;47.606;19.130;2023-03-25T14:16:11;17.60;47.30
44063;DHT22;29727;47.606;19.130;2023-03-25T14:18:45;17.60;47.00
44063;DHT22;29727;47.606;19.130;2023-03-25T14:24:15;17.50;46.80
44063;DHT22;29727;47.606;19.130;2023-03-25T14:26:48;17.50;47.40
44063;DHT22;29727;47.606;19.130;2023-03-25T14:29:42;17.40;48.80
44063;DHT22;29727;47.606;19.130;2023-03-25T14:34:42;17.40;47.90
44063;DHT22;29727;47.606;19.130;2023-03-25T14:37:22;17.40;48.30
44063;DHT22;29727;47.606;19.130;2023-03-25T14:39:50;17.40;47.90
44063;DHT22;29727;47.606;19.130;2023-03-25T14:42:23;17.40;47.50
44063;DHT22;29727;47.606;19.130;2023-03-25T14:44:51;17.30;47.40
44063;DHT22;29727;47.606;19.130;2023-03-25T14:47:29;17.30;47.90
44063;DHT22;29727;47.606;19.130;2023-03-25T14:50:29;17.20;47.60
44063;DHT22;29727;47.606;19.130;2023-03-25T14:52:57;17.00;47.60
44063;DHT22;29727;47.606;19.130;2023-03-25T14:55:42;16.90;47.30
44063;DHT22;29727;47.606;19.130;2023-03-25T15:00:42;16.80;47.70
44063;DHT22;29727;47.606;19.130;2023-03-25T15:03:15;16.70;48.20
44063;DHT22;29727;47.606;19.130;2023-03-25T15:05:43;16.60;49.30
44063;DHT22;29727;47.606;19.130;2023-03-25T15:08:14;16.50;48.70
44063;DHT22;29727;47.606;19.130;2023-03-25T15:10:48;16.50;49.30
44063;DHT22;29727;47.606;19.130;2023-03-25T15:13:29;16.50;49.10
44063;DHT22;29727;47.606;19.130;2023-03-25T15:15:59;16.40;49.00
44063;DHT22;29727;47.606;19.130;2023-03-25T15:21:22;16.40;49.60
44063;DHT22;29727;47.606;19.130;2023-03-25T15:24:09;16.40;49.40
44063;DHT22;29727;47.606;19.130;2023-03-25T15:26:42;16.40;48.60
44063;DHT22;29727;47.606;19.130;2023-03-25T16:00:07;16.30;48.20
44063;DHT22;29727;47.606;19.130;2023-03-25T16:02:46;16.30;48.40
44063;DHT22;29727;47.606;19.130;2023-03-25T16:05:15;16.30;48.20
44063;DHT22;29727;47.606;19.130;2023-03-25T16:07:41;16.40;47.70
44063;DHT22;29727;47.606;19.130;2023-03-25T16:10:29;16.40;48.20
44063;DHT22;29727;47.606;19.130;2023-03-25T16:13:11;16.40;48.10
44063;DHT22;29727;47.606;19.130;2023-03-25T16:15:37;16.40;48.10
44063;DHT22;29727;47.606;19.130;2023-03-25T16:18:06;16.40;46.80
44063;DHT22;29727;47.606;19.130;2023-03-25T16:20:35;16.40;47.30
44063;DHT22;29727;47.606;19.130;2023-03-25T16:23:04;16.40;47.40
44063;DHT22;29727;47.606;19.130;2023-03-25T16:25:36;16.30;47.70
44063;DHT22;29727;47.606;19.130;2023-03-25T16:28:20;16.30;47.50
44063;DHT22;29727;47.606;19.130;2023-03-25T16:30:51;16.30;46.70
44063;DHT22;29727;47.606;19.130;2023-03-25T16:33:24;16.20;47.80
44063;DHT22;29727;47.606;19.130;2023-03-25T16:38:25;16.10;46.80
44063;DHT22;29727;47.606;19.130;2023-03-25T16:40:59;16.10;46.60
44063;DHT22;29727;47.606;19.130;2023-03-25T16:43:26;15.90;46.50
44063;DHT22;29727;47.606;19.130;2023-03-25T16:45:58;15.90;47.40
44063;DHT22;29727;47.606;19.130;2023-03-25T16:48:33;15.80;46.70
44063;DHT22;29727;47.606;19.130;2023-03-25T16:51:14;15.80;46.70
44063;DHT22;29727;47.606;19.130;2023-03-25T16:53:43;15.80;46.80
44063;DHT22;29727;47.606;19.130;2023-03-25T16:59:00;15.70;47.40
44063;DHT22;29727;47.606;19.130;2023-03-25T17:01:27;15.70;47.40
44063;DHT22;29727;47.606;19.130;2023-03-25T17:06:42;15.70;47.50
44063;DHT22;29727;47.606;19.130;2023-03-25T17:09:15;15.70;47.50
44063;DHT22;29727;47.606;19.130;2023-03-25T17:11:42;15.70;47.40
44063;DHT22;29727;47.606;19.130;2023-03-25T17:14:16;15.70;47.80
44063;DHT22;29727;47.606;19.130;2023-03-25T17:16:45;15.80;47.40
44063;DHT22;29727;47.606;19.130;2023-03-25T17:19:13;15.80;48.00
44063;DHT22;29727;47.606;19.130;2023-03-25T17:24:24;15.90;47.40
44063;DHT22;29727;47.606;19.130;2023-03-25T17:29:58;15.90;47.20
44063;DHT22;29727;47.606;19.130;2023-03-25T17:32:24;15.90;47.30
44063;DHT22;29727;47.606;19.130;2023-03-25T17:35:04;16.00;47.00
44063;DHT22;29727;47.606;19.130;2023-03-25T17:37:31;16.00;47.30
44063;DHT22;29727;47.606;19.130;2023-03-25T17:40:04;15.90;47.30
44063;DHT22;29727;47.606;19.130;2023-03-25T17:42:36;15.90;47.10
44063;DHT22;29727;47.606;19.130;2023-03-25T17:45:02;15.90;47.70
44063;DHT22;29727;47.606;19.130;2023-03-25T17:47:28;15.90;47.80
44063;DHT22;29727;47.606;19.130;2023-03-25T17:49:53;15.90;48.30
44063;DHT22;29727;47.606;19.130;2023-03-25T17:52:20;15.90;49.00
44063;DHT22;29727;47.606;19.130;2023-03-25T17:54:46;15.90;49.30
44063;DHT22;29727;47.606;19.130;2023-03-25T17:57:15;15.90;49.00
44063;DHT22;29727;47.606;19.130;2023-03-25T17:59:41;15.90;49.40
44063;DHT22;29727;47.606;19.130;2023-03-25T18:02:12;15.90;49.70
44063;DHT22;29727;47.606;19.130;2023-03-25T18:04:38;15.80;50.10
44063;DHT22;29727;47.606;19.130;2023-03-25T18:07:04;15.80;50.40
44063;DHT22;29727;47.606;19.130;2023-03-25T18:09:30;15.80;50.80
44063;DHT22;29727;47.606;19.130;2023-03-25T18:11:57;15.80;50.60
44063;DHT22;29727;47.606;19.130;2023-03-25T18:14:24;15.70;50.40
44063;DHT22;29727;47.606;19.130;2023-03-25T18:16:51;15.70;50.80
44063;DHT22;29727;47.606;19.130;2023-03-25T18:19:19;15.60;51.20
44063;DHT22;29727;47.606;19.130;2023-03-25T18:21:46;15.60;51.10
44063;DHT22;29727;47.606;19.130;2023-03-25T18:24:12;15.50;51.10
44063;DHT22;29727;47.606;19.130;2023-03-25T18:26:38;15.50;50.70
44063;DHT22;29727;47.606;19.130;2023-03-25T18:29:15;15.40;50.50
44063;DHT22;29727;47.606;19.130;2023-03-25T18:31:41;15.40;49.90
44063;DHT22;29727;47.606;19.130;2023-03-25T18:34:07;15.30;49.30
44063;DHT22;29727;47.606;19.130;2023-03-25T18:36:33;15.30;49.30
44063;DHT22;29727;47.606;19.130;2023-03-25T18:38:58;15.30;49.50
44063;DHT22;29727;47.606;19.130;2023-03-25T18:41:24;15.20;49.40
44063;DHT22;29727;47.606;19.130;2023-03-25T18:43:50;15.20;50.00
44063;DHT22;29727;47.606;19.130;2023-03-25T18:46:16;15.10;50.10
44063;DHT22;29727;47.606;19.130;2023-03-25T18:48:42;15.10;50.60
44063;DHT22;29727;47.606;19.130;2023-03-25T18:51:12;15.10;50.00
44063;DHT22;29727;47.606;19.130;2023-03-25T18:53:38;15.00;49.50
44063;DHT22;29727;47.606;19.130;2023-03-25T18:56:04;15.00;49.60